createdAt,value
2018-06-07T00:02:02.112Z,15.07
2018-06-07T00:04:31.934Z,14.80
2018-06-07T00:07:01.778Z,15.37
2018-06-07T00:09:31.648Z,14.47
2018-06-07T00:12:01.449Z,14.80
2018-06-07T00:14:31.316Z,13.63
2018-06-07T00:17:01.208Z,14.00
2018-06-07T00:19:31.053Z,13.23
2018-06-07T00:22:00.904Z,12.70
2018-06-07T00:24:30.749Z,13.70
2018-06-07T00:27:00.568Z,12.00
2018-06-07T00:29:30.401Z,12.67
2018-06-07T00:32:00.276Z,12.50
2018-06-07T00:34:30.081Z,12.83
2018-06-07T00:36:59.928Z,12.73
2018-06-07T00:39:29.740Z,12.97
2018-06-07T00:41:59.590Z,14.57
2018-06-07T00:44:29.688Z,14.00
2018-06-07T00:46:59.555Z,13.70
2018-06-07T00:49:29.398Z,12.70
2018-06-07T00:51:59.247Z,13.37
2018-06-07T00:54:29.065Z,12.87
2018-06-07T00:57:09.753Z,13.63
2018-06-07T00:59:39.555Z,13.50
2018-06-07T01:02:09.412Z,13.13
2018-06-07T01:04:39.289Z,14.00
2018-06-07T01:07:09.158Z,14.27
2018-06-07T01:09:39.042Z,13.80
2018-06-07T01:12:08.863Z,14.17
2018-06-07T01:14:38.720Z,15.10
2018-06-07T01:17:08.544Z,15.83
2018-06-07T01:19:38.439Z,16.47
2018-06-07T01:22:08.276Z,17.53
2018-06-07T01:24:38.151Z,17.70
2018-06-07T01:27:07.947Z,17.77
2018-06-07T01:29:48.648Z,17.77
2018-06-07T01:33:33.303Z,17.50
2018-06-07T01:36:03.624Z,16.57
2018-06-07T01:38:44.260Z,17.60
2018-06-07T01:41:14.186Z,15.97
2018-06-07T01:43:44.043Z,16.40
2018-06-07T01:46:13.869Z,16.37
2018-06-07T01:48:43.711Z,15.33
2018-06-07T01:51:13.599Z,16.17
2018-06-07T01:53:43.401Z,16.03
2018-06-07T01:56:13.248Z,15.40
2018-06-07T01:58:43.055Z,15.47
2018-06-07T02:01:12.904Z,15.13
2018-06-07T02:03:42.863Z,14.73
2018-06-07T02:06:12.668Z,15.87
2018-06-07T02:08:42.567Z,14.50
2018-06-07T02:11:12.404Z,15.57
2018-06-07T02:13:42.224Z,16.57
2018-06-07T02:16:12.024Z,15.20
2018-06-07T02:18:41.900Z,15.97
2018-06-07T02:21:11.740Z,15.43
2018-06-07T02:23:41.573Z,15.17
2018-06-07T02:26:11.379Z,15.80
2018-06-07T02:28:41.252Z,15.70
2018-06-07T02:31:11.096Z,14.57
2018-06-07T02:33:40.954Z,14.40
2018-06-07T02:36:10.768Z,14.90
2018-06-07T02:38:40.630Z,14.80
2018-06-07T02:41:10.434Z,14.97
2018-06-07T02:43:40.300Z,14.87
2018-06-07T02:46:10.102Z,15.47
2018-06-07T02:48:39.972Z,16.30
2018-06-07T02:51:09.759Z,17.53
2018-06-07T02:53:39.580Z,16.00
2018-06-07T02:56:09.430Z,15.80
2018-06-07T02:58:39.224Z,16.10
2018-06-07T03:01:09.084Z,15.23
2018-06-07T03:03:38.908Z,15.10
2018-06-07T03:06:08.776Z,16.03
2018-06-07T03:08:38.576Z,16.30
2018-06-07T03:11:08.425Z,16.30
2018-06-07T03:13:38.285Z,16.57
2018-06-07T03:16:08.092Z,17.10
2018-06-07T03:18:37.964Z,15.57
2018-06-07T03:21:07.781Z,16.40
2018-06-07T03:23:37.612Z,16.63
2018-06-07T03:26:07.436Z,16.50
2018-06-07T03:28:37.288Z,17.10
2018-06-07T03:31:07.096Z,16.50
2018-06-07T03:33:36.940Z,16.77
2018-06-07T03:36:06.808Z,17.30
2018-06-07T03:38:36.644Z,16.57
2018-06-07T03:41:06.493Z,16.40
2018-06-07T03:43:36.361Z,16.57
2018-06-07T03:46:06.155Z,15.63
2018-06-07T03:48:36.001Z,15.80
2018-06-07T03:51:05.808Z,16.60
2018-06-07T03:53:35.696Z,17.37
2018-06-07T03:56:05.520Z,18.80
2018-06-07T03:58:35.402Z,21.17
2018-06-07T04:01:05.244Z,15.83
2018-06-07T04:03:35.075Z,16.53
2018-06-07T04:06:04.974Z,16.13
2018-06-07T04:08:34.829Z,15.77
2018-06-07T04:11:04.733Z,15.33
2018-06-07T04:13:34.584Z,15.30
2018-06-07T04:16:04.520Z,15.37
2018-06-07T04:18:34.356Z,15.87
2018-06-07T04:21:04.284Z,13.97
2018-06-07T04:23:34.132Z,15.17
2018-06-07T04:26:04.590Z,16.00
2018-06-07T04:28:34.545Z,15.17
2018-06-07T04:31:04.392Z,15.87
2018-06-07T04:33:34.213Z,15.50
2018-06-07T04:36:04.121Z,14.67
2018-06-07T04:38:34.056Z,15.50
2018-06-07T04:41:03.894Z,14.93
2018-06-07T04:43:33.751Z,14.37
2018-06-07T04:46:03.588Z,14.53
2018-06-07T04:48:33.477Z,14.77
2018-06-07T04:51:03.301Z,14.73
2018-06-07T04:53:33.171Z,14.13
2018-06-07T04:56:03.329Z,13.43
2018-06-07T04:58:33.794Z,15.93
2018-06-07T05:01:03.689Z,16.73
2018-06-07T05:03:33.612Z,17.57
2018-06-07T05:06:03.593Z,17.10
2018-06-07T05:08:33.624Z,16.63
2018-06-07T05:11:03.569Z,17.30
2018-06-07T05:13:33.527Z,16.40
2018-06-07T05:16:03.480Z,16.23
2018-06-07T05:18:33.465Z,16.17
2018-06-07T05:21:03.401Z,17.37
2018-06-07T05:23:33.271Z,17.20
2018-06-07T05:26:03.121Z,16.00
2018-06-07T05:28:32.952Z,12.83
2018-06-07T05:31:03.257Z,12.30
2018-06-07T05:33:33.353Z,12.80
2018-06-07T05:36:04.138Z,12.60
2018-06-07T05:38:35.016Z,12.80
2018-06-07T05:41:05.074Z,13.33
2018-06-07T05:43:35.127Z,12.70
2018-06-07T05:46:05.104Z,13.13
2018-06-07T05:48:34.924Z,11.60
2018-06-07T05:51:04.894Z,12.03
2018-06-07T05:53:34.813Z,12.23
2018-06-07T05:56:04.870Z,12.73
2018-06-07T05:58:34.868Z,11.87
2018-06-07T06:01:04.841Z,11.53
2018-06-07T06:03:34.711Z,11.90
2018-06-07T06:06:04.840Z,10.90
2018-06-07T06:08:34.756Z,11.53
2018-06-07T06:11:04.683Z,10.50
2018-06-07T06:13:34.688Z,11.83
2018-06-07T06:16:04.542Z,11.97
2018-06-07T06:18:34.422Z,11.20
2018-06-07T06:21:04.359Z,10.80
2018-06-07T06:23:34.317Z,9.73
2018-06-07T06:26:04.208Z,10.33
2018-06-07T06:28:34.177Z,10.73
2018-06-07T06:31:04.196Z,11.30
2018-06-07T06:33:34.065Z,11.47
2018-06-07T06:36:06.984Z,11.00
2018-06-07T06:38:38.317Z,11.60
2018-06-07T06:41:08.263Z,11.33
2018-06-07T06:43:38.115Z,10.33
2018-06-07T06:46:08.369Z,11.10
2018-06-07T06:48:38.264Z,9.87
2018-06-07T06:51:08.199Z,10.30
2018-06-07T06:53:38.028Z,11.27
2018-06-07T06:56:07.895Z,10.97
2018-06-07T06:58:37.841Z,11.60
2018-06-07T07:01:07.845Z,10.47
2018-06-07T07:03:37.779Z,10.07
2018-06-07T07:06:07.729Z,10.40
2018-06-07T07:08:37.693Z,10.10
2018-06-07T07:11:07.637Z,10.67
2018-06-07T07:13:37.648Z,10.97
2018-06-07T07:16:07.584Z,10.17
2018-06-07T07:18:37.611Z,10.07
2018-06-07T07:21:07.561Z,10.50
2018-06-07T07:23:37.466Z,9.93
2018-06-07T07:26:07.400Z,9.80
2018-06-07T07:28:37.316Z,10.17
2018-06-07T07:31:07.232Z,11.53
2018-06-07T07:33:37.117Z,10.77
2018-06-07T07:36:07.106Z,11.27
2018-06-07T07:38:37.096Z,10.33
2018-06-07T07:41:07.146Z,9.57
2018-06-07T07:43:37.093Z,11.33
2018-06-07T07:46:07.080Z,10.10
2018-06-07T07:48:36.944Z,10.87
2018-06-07T07:51:06.800Z,11.10
2018-06-07T07:53:36.806Z,12.10
2018-06-07T07:56:06.706Z,10.43
2018-06-07T07:58:36.707Z,10.53
2018-06-07T08:03:40.331Z,11.87
2018-06-07T08:06:10.647Z,10.90
2018-06-07T08:08:40.675Z,11.30
2018-06-07T08:11:10.558Z,10.83
2018-06-07T08:13:40.444Z,11.67
2018-06-07T08:16:10.465Z,11.13
2018-06-07T08:18:40.429Z,11.73
2018-06-07T08:21:10.407Z,10.87
2018-06-07T08:23:40.335Z,11.37
2018-06-07T08:26:10.255Z,11.23
2018-06-07T08:28:40.109Z,10.90
2018-06-07T08:31:09.952Z,9.97
2018-06-07T08:33:39.849Z,10.33
2018-06-07T08:36:09.705Z,10.40
2018-06-07T08:38:39.629Z,11.43
2018-06-07T08:41:09.496Z,11.30
2018-06-07T08:43:39.340Z,10.77
2018-06-07T08:46:09.200Z,10.83
2018-06-07T08:48:39.049Z,11.43
2018-06-07T08:51:08.932Z,11.90
2018-06-07T08:53:38.756Z,11.23
2018-06-07T08:56:08.732Z,11.67
2018-06-07T08:58:38.634Z,11.33
2018-06-07T09:01:08.790Z,12.07
2018-06-07T09:03:38.665Z,11.23
2018-06-07T09:06:08.567Z,11.63
2018-06-07T09:08:38.476Z,11.20
2018-06-07T09:11:08.369Z,11.23
2018-06-07T09:13:38.384Z,10.60
2018-06-07T09:16:08.328Z,10.80
2018-06-07T09:18:38.357Z,11.90
2018-06-07T09:21:08.289Z,10.97
2018-06-07T09:23:38.213Z,11.67
2018-06-07T09:26:08.134Z,11.83
2018-06-07T09:28:38.108Z,10.17
2018-06-07T09:31:08.567Z,10.17
2018-06-07T09:33:38.562Z,10.53
2018-06-07T09:36:08.917Z,10.07
2018-06-07T09:38:38.804Z,9.70
2018-06-07T09:41:08.720Z,10.00
2018-06-07T09:43:38.603Z,11.20
2018-06-07T09:46:08.551Z,10.40
2018-06-07T09:48:38.432Z,11.17
2018-06-07T09:51:08.344Z,11.20
2018-06-07T09:53:38.200Z,11.20
2018-06-07T09:56:08.084Z,11.80
2018-06-07T09:58:37.979Z,10.77
2018-06-07T10:01:07.842Z,10.30
2018-06-07T10:03:37.735Z,10.40
2018-06-07T10:06:07.602Z,10.13
2018-06-07T10:08:37.519Z,10.70
2018-06-07T10:11:07.356Z,9.83
2018-06-07T10:13:37.212Z,10.30
2018-06-07T10:16:07.132Z,10.17
2018-06-07T10:18:36.996Z,10.50
2018-06-07T10:21:06.843Z,11.17
2018-06-07T10:23:36.696Z,10.70
2018-06-07T10:26:06.652Z,10.47
2018-06-07T10:28:36.484Z,10.80
2018-06-07T10:31:06.380Z,10.50
2018-06-07T10:33:36.194Z,10.43
2018-06-07T10:36:06.105Z,10.40
2018-06-07T10:38:35.999Z,10.77
2018-06-07T10:41:05.959Z,10.47
2018-06-07T10:43:35.917Z,9.70
2018-06-07T10:46:05.781Z,9.80
2018-06-07T10:48:35.753Z,9.80
2018-06-07T10:51:05.652Z,10.13
2018-06-07T10:53:35.948Z,9.70
2018-06-07T10:56:06.068Z,9.70
2018-06-07T10:58:35.973Z,9.87
2018-06-07T11:01:05.949Z,9.93
2018-06-07T11:03:36.010Z,10.67
2018-06-07T11:06:06.000Z,10.57
2018-06-07T11:08:35.896Z,9.30
2018-06-07T11:11:05.736Z,9.17
2018-06-07T11:13:35.712Z,9.37
2018-06-07T11:16:05.711Z,8.97
2018-06-07T11:18:35.620Z,9.13
2018-06-07T11:21:05.447Z,9.17
2018-06-07T11:23:35.363Z,8.50
2018-06-07T11:26:05.340Z,8.63
2018-06-07T11:28:35.305Z,8.67
2018-06-07T11:31:05.161Z,9.23
2018-06-07T11:33:35.104Z,8.07
2018-06-07T11:36:05.011Z,8.60
2018-06-07T11:38:34.924Z,7.73
2018-06-07T11:41:04.741Z,8.27
2018-06-07T11:43:34.612Z,8.20
2018-06-07T11:46:04.771Z,8.50
2018-06-07T11:48:34.707Z,8.73
2018-06-07T11:51:04.672Z,8.13
2018-06-07T11:53:34.631Z,7.83
2018-06-07T11:56:04.572Z,8.60
2018-06-07T11:58:34.421Z,7.80
2018-06-07T12:01:04.295Z,8.33
2018-06-07T12:03:34.205Z,9.23
2018-06-07T12:06:04.065Z,9.00
2018-06-07T12:08:33.976Z,8.03
2018-06-07T12:11:03.843Z,8.77
2018-06-07T12:13:33.759Z,8.30
2018-06-07T12:16:03.615Z,7.90
2018-06-07T12:18:33.448Z,8.23
2018-06-07T12:21:03.241Z,8.03
2018-06-07T12:23:33.108Z,8.57
2018-06-07T12:26:02.960Z,7.90
2018-06-07T12:28:32.820Z,9.80
2018-06-07T12:31:02.708Z,10.70
2018-06-07T12:33:32.592Z,10.23
2018-06-07T12:36:02.580Z,8.90
2018-06-07T12:38:32.587Z,10.47
2018-06-07T12:41:02.460Z,8.87
2018-06-07T12:43:32.404Z,9.93
2018-06-07T12:46:02.258Z,11.50
2018-06-07T12:48:32.111Z,7.40
2018-06-07T12:51:02.058Z,7.03
2018-06-07T12:53:32.158Z,7.30
2018-06-07T12:56:02.102Z,7.73
2018-06-07T12:58:32.057Z,7.37
2018-06-07T13:01:02.040Z,7.40
2018-06-07T13:03:31.896Z,7.33
2018-06-07T13:06:01.841Z,8.43
2018-06-07T13:08:31.682Z,7.83
2018-06-07T13:11:01.609Z,9.23
2018-06-07T13:13:31.719Z,8.70
2018-06-07T13:16:01.628Z,7.97
2018-06-07T13:18:31.567Z,6.77
2018-06-07T13:21:01.446Z,6.20
2018-06-07T13:23:31.372Z,6.17
2018-06-07T13:26:01.232Z,5.80
2018-06-07T13:28:31.116Z,5.73
2018-06-07T13:31:01.864Z,7.40
2018-06-07T13:33:31.823Z,6.30
2018-06-07T13:36:01.697Z,7.10
2018-06-07T13:38:31.643Z,7.10
2018-06-07T13:41:01.608Z,6.37
2018-06-07T13:43:31.476Z,7.93
2018-06-07T13:46:01.453Z,9.03
2018-06-07T13:48:31.334Z,8.20
2018-06-07T13:51:01.329Z,8.43
2018-06-07T13:53:31.209Z,7.70
2018-06-07T13:56:01.137Z,7.47
2018-06-07T13:58:31.077Z,7.20
2018-06-07T14:01:01.028Z,6.60
2018-06-07T14:03:30.923Z,6.93
2018-06-07T14:06:00.795Z,7.07
2018-06-07T14:08:30.756Z,7.13
2018-06-07T14:11:00.769Z,6.77
2018-06-07T14:13:30.633Z,6.80
2018-06-07T14:16:00.616Z,6.80
2018-06-07T14:18:30.454Z,7.40
2018-06-07T14:21:00.400Z,7.10
2018-06-07T14:23:30.282Z,7.30
2018-06-07T14:26:00.239Z,6.93
2018-06-07T14:28:30.126Z,7.17
2018-06-07T14:31:00.211Z,7.00
2018-06-07T14:33:30.009Z,6.83
2018-06-07T14:35:59.879Z,7.30
2018-06-07T14:38:29.703Z,7.33
2018-06-07T14:40:59.547Z,7.77
2018-06-07T14:43:29.358Z,8.70
2018-06-07T14:45:59.204Z,9.60
2018-06-07T14:48:29.009Z,9.27
2018-06-07T14:50:58.884Z,10.30
2018-06-07T14:53:28.751Z,10.93
2018-06-07T14:55:58.640Z,9.87
2018-06-07T14:58:28.444Z,8.70
2018-06-07T15:00:58.292Z,11.07
2018-06-07T15:03:28.180Z,10.10
2018-06-07T15:05:58.025Z,9.00
2018-06-07T15:08:28.016Z,9.57
2018-06-07T15:10:57.876Z,9.20
2018-06-07T15:13:27.855Z,8.90
2018-06-07T15:15:57.823Z,10.40
2018-06-07T15:18:27.733Z,10.97
2018-06-07T15:20:57.564Z,10.83
2018-06-07T15:23:27.412Z,11.47
2018-06-07T15:25:57.271Z,10.43
2018-06-07T15:28:27.087Z,10.90
2018-06-07T15:30:56.936Z,9.47
2018-06-07T15:33:26.775Z,10.17
2018-06-07T15:35:56.617Z,10.17
2018-06-07T15:38:26.486Z,12.23
2018-06-07T15:40:56.341Z,12.27
2018-06-07T15:43:26.179Z,11.33
2018-06-07T15:45:56.150Z,12.37
2018-06-07T15:48:25.916Z,13.30
2018-06-07T15:50:55.788Z,11.37
2018-06-07T15:53:25.604Z,10.43
2018-06-07T15:55:55.451Z,10.90
2018-06-07T15:58:25.260Z,11.70
2018-06-07T16:00:55.120Z,11.43
2018-06-07T16:03:24.952Z,12.23
2018-06-07T16:05:54.795Z,13.90
2018-06-07T16:08:24.637Z,13.57
2018-06-07T16:10:54.541Z,13.83
2018-06-07T16:13:24.467Z,13.53
2018-06-07T16:15:54.320Z,13.90
2018-06-07T16:18:24.156Z,12.67
2018-06-07T16:20:54.060Z,12.17
2018-06-07T16:23:23.872Z,12.33
2018-06-07T16:25:53.716Z,12.07
2018-06-07T16:28:23.527Z,11.87
2018-06-07T16:30:53.422Z,11.67
2018-06-07T16:33:23.251Z,11.87
2018-06-07T16:35:53.052Z,11.30
2018-06-07T16:38:22.892Z,11.60
2018-06-07T16:40:52.788Z,10.90
2018-06-07T16:43:22.583Z,11.60
2018-06-07T16:45:52.456Z,11.33
2018-06-07T16:48:22.271Z,12.27
2018-06-07T16:50:52.150Z,12.80
2018-06-07T16:53:21.956Z,11.63
2018-06-07T16:55:51.804Z,11.73
2018-06-07T16:58:21.639Z,11.70
2018-06-07T17:00:51.504Z,11.70
2018-06-07T17:03:21.316Z,10.93
2018-06-07T17:05:51.194Z,11.57
2018-06-07T17:08:21.010Z,11.03
2018-06-07T17:10:50.847Z,11.90
2018-06-07T17:13:20.637Z,11.70
2018-06-07T17:15:50.458Z,12.00
2018-06-07T17:18:20.276Z,13.20
2018-06-07T17:20:50.096Z,14.23
2018-06-07T17:23:19.932Z,14.03
2018-06-07T17:25:49.772Z,12.20
2018-06-07T17:28:19.612Z,12.47
2018-06-07T17:30:49.455Z,12.27
2018-06-07T17:33:19.307Z,12.03
2018-06-07T17:35:49.141Z,12.00
2018-06-07T17:38:18.984Z,12.63
2018-06-07T17:40:48.828Z,14.43
2018-06-07T17:43:18.613Z,13.50
2018-06-07T17:45:48.455Z,12.33
2018-06-07T17:48:18.264Z,12.70
2018-06-07T17:50:48.100Z,12.53
2018-06-07T17:53:17.914Z,12.77
2018-06-07T17:55:47.792Z,12.07
2018-06-07T17:58:17.600Z,12.37
2018-06-07T18:00:47.499Z,12.20
2018-06-07T18:03:17.321Z,13.10
2018-06-07T18:05:47.198Z,12.67
2018-06-07T18:08:17.052Z,14.07
2018-06-07T18:10:46.884Z,12.90
2018-06-07T18:13:16.751Z,12.83
2018-06-07T18:15:46.675Z,13.50
2018-06-07T18:18:16.480Z,13.57
2018-06-07T18:20:46.304Z,13.73
2018-06-07T18:23:16.251Z,11.83
2018-06-07T18:25:46.071Z,12.20
2018-06-07T18:28:15.959Z,12.20
2018-06-07T18:30:45.835Z,12.50
2018-06-07T18:33:15.716Z,13.67
2018-06-07T18:35:45.537Z,13.27
2018-06-07T18:38:15.385Z,14.10
2018-06-07T18:40:45.201Z,14.47
2018-06-07T18:43:15.053Z,14.33
2018-06-07T18:45:44.913Z,12.57
2018-06-07T18:48:14.800Z,13.73
2018-06-07T18:50:44.608Z,13.50
2018-06-07T18:53:14.575Z,13.57
2018-06-07T18:55:44.403Z,13.07
2018-06-07T18:58:14.248Z,14.10
2018-06-07T19:00:44.100Z,14.53
2018-06-07T19:03:13.990Z,13.87
2018-06-07T19:05:43.824Z,15.00
2018-06-07T19:08:13.676Z,13.77
2018-06-07T19:10:43.504Z,13.90
2018-06-07T19:13:18.408Z,14.40
2018-06-07T19:15:48.305Z,14.27
2018-06-07T19:18:18.094Z,14.37
2018-06-07T19:20:56.444Z,14.60
2018-06-07T19:23:26.248Z,14.27
2018-06-07T19:26:01.113Z,14.53
2018-06-07T19:28:30.895Z,15.33
2018-06-07T19:31:00.717Z,15.17
2018-06-07T19:33:35.662Z,15.27
2018-06-07T19:36:05.604Z,14.83
2018-06-07T19:38:35.585Z,14.87
2018-06-07T19:42:12.308Z,14.47
2018-06-07T19:44:42.119Z,16.67
2018-06-07T19:47:11.936Z,15.70
2018-06-07T19:49:41.799Z,14.73
2018-06-07T19:52:11.675Z,14.67
2018-06-07T19:54:41.516Z,14.50
2018-06-07T19:57:11.431Z,14.97
2018-06-07T19:59:41.271Z,13.87
2018-06-07T20:02:11.076Z,16.30
2018-06-07T20:04:40.923Z,15.17
2018-06-07T20:07:10.728Z,14.50
2018-06-07T20:09:40.892Z,14.47
2018-06-07T20:12:10.745Z,14.20
2018-06-07T20:14:40.539Z,13.87
2018-06-07T20:17:10.411Z,16.53
2018-06-07T20:19:40.190Z,15.00
2018-06-07T20:22:10.098Z,15.50
2018-06-07T20:24:39.957Z,16.20
2018-06-07T20:27:09.794Z,15.97
2018-06-07T20:29:39.635Z,16.30
2018-06-07T20:32:09.465Z,16.13
2018-06-07T20:34:39.267Z,15.80
2018-06-07T20:37:09.137Z,15.23
2018-06-07T20:39:38.959Z,16.80
2018-06-07T20:42:08.756Z,16.03
2018-06-07T20:44:38.644Z,16.30
2018-06-07T20:47:08.566Z,15.47
2018-06-07T20:49:38.464Z,15.07
2018-06-07T20:52:08.280Z,14.80
2018-06-07T20:54:38.178Z,14.80
2018-06-07T20:57:08.052Z,14.33
2018-06-07T20:59:37.881Z,15.30
2018-06-07T21:02:07.660Z,14.67
2018-06-07T21:04:37.518Z,14.77
2018-06-07T21:07:07.288Z,14.13
2018-06-07T21:09:37.142Z,15.57
2018-06-07T21:12:07.048Z,14.63
2018-06-07T21:14:36.926Z,15.50
2018-06-07T21:17:06.788Z,15.43
2018-06-07T21:19:36.612Z,15.63
2018-06-07T21:22:06.460Z,15.90
2018-06-07T21:24:36.280Z,15.93
2018-06-07T21:27:06.138Z,15.50
2018-06-07T21:29:35.931Z,16.30
2018-06-07T21:32:05.708Z,16.57
2018-06-07T21:34:35.549Z,15.67
2018-06-07T21:37:05.390Z,15.17
2018-06-07T21:39:35.239Z,16.40
2018-06-07T21:42:05.080Z,16.13
2018-06-07T21:44:34.908Z,19.37
2018-06-07T21:47:04.728Z,21.80
2018-06-07T21:49:34.955Z,18.27
2018-06-07T21:52:04.772Z,18.27
2018-06-07T21:54:34.567Z,19.60
2018-06-07T21:57:04.444Z,20.60
2018-06-07T21:59:34.295Z,19.23
2018-06-07T22:02:04.196Z,17.97
2018-06-07T22:04:33.949Z,18.67
2018-06-07T22:07:03.678Z,16.77
2018-06-07T22:09:33.467Z,17.73
2018-06-07T22:12:03.199Z,17.83
2018-06-07T22:14:32.911Z,17.10
2018-06-07T22:17:02.648Z,17.40
2018-06-07T22:19:32.395Z,17.23
2018-06-07T22:22:02.131Z,17.57
2018-06-07T22:24:31.862Z,17.80
2018-06-07T22:27:01.561Z,17.97
2018-06-07T22:29:31.300Z,18.30
2018-06-07T22:32:01.095Z,18.27
2018-06-07T22:34:30.787Z,18.23
2018-06-07T22:37:00.519Z,18.67
2018-06-07T22:39:30.218Z,18.60
2018-06-07T22:41:59.951Z,19.53
2018-06-07T22:44:29.644Z,18.83
2018-06-07T22:46:59.483Z,19.00
2018-06-07T22:49:29.256Z,19.93
2018-06-07T22:51:59.023Z,20.33
2018-06-07T22:54:28.763Z,19.70
2018-06-07T22:56:58.517Z,19.80
2018-06-07T22:59:28.283Z,18.90
2018-06-07T23:01:58.011Z,18.67
2018-06-07T23:04:27.756Z,19.13
2018-06-07T23:06:57.522Z,17.77
2018-06-07T23:09:27.241Z,18.47
2018-06-07T23:11:56.999Z,19.40
2018-06-07T23:14:26.760Z,18.40
2018-06-07T23:16:56.499Z,18.47
2018-06-07T23:19:26.267Z,17.53
2018-06-07T23:21:56.041Z,18.87
2018-06-07T23:24:25.818Z,18.67
2018-06-07T23:26:55.559Z,19.03
2018-06-07T23:29:25.335Z,18.37
2018-06-07T23:31:55.058Z,18.80
2018-06-07T23:34:24.831Z,18.00
2018-06-07T23:36:54.611Z,17.63
2018-06-07T23:39:24.374Z,17.10
2018-06-07T23:41:54.091Z,16.60
2018-06-07T23:44:23.851Z,15.70
2018-06-07T23:46:53.648Z,14.30
2018-06-07T23:49:23.432Z,14.17
2018-06-07T23:51:53.196Z,13.90
2018-06-07T23:54:23.024Z,13.27
2018-06-07T23:56:52.900Z,13.47
2018-06-07T23:59:22.728Z,14.43
